sensor_id;sensor_type;location;lat;lon;timestamp;P1;durP1;ratioP1;P2;durP2;ratioP2
74196;SDS011;62555;52.678;4.900;2023-10-08T00:00:43;4.43;;;2.67;;
74196;SDS011;62555;52.678;4.900;2023-10-08T00:03:11;4.18;;;2.60;;
74196;SDS011;62555;52.678;4.900;2023-10-08T00:05:36;5.13;;;3.35;;
74196;SDS011;62555;52.678;4.900;2023-10-08T00:08:02;6.47;;;3.10;;
74196;SDS011;62555;52.678;4.900;2023-10-08T00:10:33;4.68;;;3.65;;
74196;SDS011;62555;52.678;4.900;2023-10-08T00:12:59;4.25;;;2.97;;
74196;SDS011;62555;52.678;4.900;2023-10-08T00:15:24;4.50;;;3.25;;
74196;SDS011;62555;52.678;4.900;2023-10-08T00:17:50;3.80;;;2.80;;
74196;SDS011;62555;52.678;4.900;2023-10-08T00:20:18;5.00;;;3.10;;
74196;SDS011;62555;52.678;4.900;2023-10-08T00:22:50;4.05;;;3.10;;
74196;SDS011;62555;52.678;4.900;2023-10-08T00:25:15;6.00;;;3.03;;
74196;SDS011;62555;52.678;4.900;2023-10-08T00:27:41;4.65;;;3.13;;
74196;SDS011;62555;52.678;4.900;2023-10-08T00:30:06;3.35;;;2.63;;
74196;SDS011;62555;52.678;4.900;2023-10-08T00:32:42;3.78;;;2.30;;
74196;SDS011;62555;52.678;4.900;2023-10-08T00:35:08;5.27;;;3.07;;
74196;SDS011;62555;52.678;4.900;2023-10-08T00:37:37;4.72;;;3.00;;
74196;SDS011;62555;52.678;4.900;2023-10-08T00:40:02;5.60;;;2.90;;
74196;SDS011;62555;52.678;4.900;2023-10-08T00:42:30;3.97;;;2.67;;
74196;SDS011;62555;52.678;4.900;2023-10-08T00:44:55;4.05;;;2.85;;
74196;SDS011;62555;52.678;4.900;2023-10-08T00:47:21;4.68;;;2.95;;
74196;SDS011;62555;52.678;4.900;2023-10-08T00:49:51;3.90;;;3.17;;
74196;SDS011;62555;52.678;4.900;2023-10-08T00:52:31;4.88;;;3.22;;
74196;SDS011;62555;52.678;4.900;2023-10-08T00:55:05;4.60;;;2.70;;
74196;SDS011;62555;52.678;4.900;2023-10-08T00:57:34;5.95;;;3.47;;
74196;SDS011;62555;52.678;4.900;2023-10-08T01:00:07;4.13;;;2.53;;
74196;SDS011;62555;52.678;4.900;2023-10-08T01:02:40;4.13;;;2.92;;
74196;SDS011;62555;52.678;4.900;2023-10-08T01:05:12;6.38;;;3.22;;
74196;SDS011;62555;52.678;4.900;2023-10-08T01:07:38;5.10;;;2.70;;
74196;SDS011;62555;52.678;4.900;2023-10-08T01:10:07;3.92;;;2.67;;
74196;SDS011;62555;52.678;4.900;2023-10-08T01:12:35;5.55;;;2.95;;
74196;SDS011;62555;52.678;4.900;2023-10-08T01:15:09;2.78;;;2.40;;
74196;SDS011;62555;52.678;4.900;2023-10-08T01:17:48;4.13;;;2.70;;
74196;SDS011;62555;52.678;4.900;2023-10-08T01:20:34;4.55;;;2.90;;
74196;SDS011;62555;52.678;4.900;2023-10-08T01:23:03;3.30;;;2.47;;
74196;SDS011;62555;52.678;4.900;2023-10-08T01:25:29;3.42;;;2.58;;
74196;SDS011;62555;52.678;4.900;2023-10-08T01:27:56;3.97;;;2.45;;
74196;SDS011;62555;52.678;4.900;2023-10-08T01:30:22;4.07;;;2.80;;
74196;SDS011;62555;52.678;4.900;2023-10-08T01:32:48;5.05;;;2.80;;
74196;SDS011;62555;52.678;4.900;2023-10-08T01:35:13;3.97;;;2.57;;
74196;SDS011;62555;52.678;4.900;2023-10-08T01:37:51;4.65;;;2.97;;
74196;SDS011;62555;52.678;4.900;2023-10-08T01:40:17;4.50;;;2.53;;
74196;SDS011;62555;52.678;4.900;2023-10-08T01:42:42;4.25;;;2.60;;
74196;SDS011;62555;52.678;4.900;2023-10-08T01:45:08;4.40;;;2.73;;
74196;SDS011;62555;52.678;4.900;2023-10-08T01:47:35;5.75;;;2.60;;
74196;SDS011;62555;52.678;4.900;2023-10-08T01:50:00;3.83;;;2.25;;
74196;SDS011;62555;52.678;4.900;2023-10-08T01:52:30;4.10;;;2.70;;
74196;SDS011;62555;52.678;4.900;2023-10-08T01:54:55;4.43;;;2.80;;
74196;SDS011;62555;52.678;4.900;2023-10-08T01:57:21;4.25;;;2.65;;
74196;SDS011;62555;52.678;4.900;2023-10-08T01:59:46;3.90;;;2.20;;
74196;SDS011;62555;52.678;4.900;2023-10-08T02:02:11;4.13;;;2.03;;
74196;SDS011;62555;52.678;4.900;2023-10-08T02:04:37;3.72;;;2.17;;
74196;SDS011;62555;52.678;4.900;2023-10-08T02:07:03;3.70;;;2.17;;
74196;SDS011;62555;52.678;4.900;2023-10-08T02:09:37;3.38;;;2.15;;
74196;SDS011;62555;52.678;4.900;2023-10-08T02:12:02;3.85;;;2.47;;
74196;SDS011;62555;52.678;4.900;2023-10-08T02:14:28;4.97;;;2.38;;
74196;SDS011;62555;52.678;4.900;2023-10-08T02:16:56;3.95;;;2.67;;
74196;SDS011;62555;52.678;4.900;2023-10-08T02:19:22;2.77;;;2.20;;
74196;SDS011;62555;52.678;4.900;2023-10-08T02:21:52;2.92;;;1.88;;
74196;SDS011;62555;52.678;4.900;2023-10-08T02:24:19;3.53;;;2.38;;
74196;SDS011;62555;52.678;4.900;2023-10-08T02:29:11;3.42;;;1.63;;
74196;SDS011;62555;52.678;4.900;2023-10-08T02:31:37;3.07;;;2.20;;
74196;SDS011;62555;52.678;4.900;2023-10-08T02:34:03;2.30;;;1.58;;
74196;SDS011;62555;52.678;4.900;2023-10-08T02:36:28;3.03;;;2.45;;
74196;SDS011;62555;52.678;4.900;2023-10-08T02:38:53;3.03;;;1.67;;
74196;SDS011;62555;52.678;4.900;2023-10-08T02:41:19;4.15;;;1.88;;
74196;SDS011;62555;52.678;4.900;2023-10-08T02:43:45;2.60;;;1.87;;
74196;SDS011;62555;52.678;4.900;2023-10-08T02:46:10;2.77;;;1.97;;
74196;SDS011;62555;52.678;4.900;2023-10-08T02:48:40;2.67;;;1.88;;
74196;SDS011;62555;52.678;4.900;2023-10-08T02:51:05;2.63;;;1.90;;
74196;SDS011;62555;52.678;4.900;2023-10-08T02:53:39;2.33;;;1.40;;
74196;SDS011;62555;52.678;4.900;2023-10-08T02:56:07;2.90;;;1.77;;
74196;SDS011;62555;52.678;4.900;2023-10-08T02:58:37;2.40;;;1.50;;
74196;SDS011;62555;52.678;4.900;2023-10-08T03:01:03;2.63;;;1.60;;
74196;SDS011;62555;52.678;4.900;2023-10-08T03:03:29;1.83;;;1.57;;
74196;SDS011;62555;52.678;4.900;2023-10-08T03:05:54;1.90;;;1.53;;
74196;SDS011;62555;52.678;4.900;2023-10-08T03:08:22;2.10;;;1.88;;
74196;SDS011;62555;52.678;4.900;2023-10-08T03:10:48;2.55;;;1.40;;
74196;SDS011;62555;52.678;4.900;2023-10-08T03:13:14;2.47;;;1.40;;
74196;SDS011;62555;52.678;4.900;2023-10-08T03:15:41;2.10;;;1.40;;
74196;SDS011;62555;52.678;4.900;2023-10-08T03:18:12;3.33;;;1.60;;
74196;SDS011;62555;52.678;4.900;2023-10-08T03:20:39;2.15;;;1.88;;
74196;SDS011;62555;52.678;4.900;2023-10-08T03:23:08;2.63;;;1.58;;
74196;SDS011;62555;52.678;4.900;2023-10-08T03:25:53;2.13;;;1.50;;
74196;SDS011;62555;52.678;4.900;2023-10-08T03:28:37;2.08;;;1.67;;
74196;SDS011;62555;52.678;4.900;2023-10-08T03:31:03;2.70;;;1.92;;
74196;SDS011;62555;52.678;4.900;2023-10-08T03:33:38;2.13;;;1.48;;
74196;SDS011;62555;52.678;4.900;2023-10-08T03:36:06;1.50;;;1.20;;
74196;SDS011;62555;52.678;4.900;2023-10-08T03:39:01;1.83;;;1.33;;
74196;SDS011;62555;52.678;4.900;2023-10-08T03:41:36;2.28;;;1.40;;
74196;SDS011;62555;52.678;4.900;2023-10-08T03:44:05;1.85;;;1.20;;
74196;SDS011;62555;52.678;4.900;2023-10-08T03:46:41;1.70;;;1.20;;
74196;SDS011;62555;52.678;4.900;2023-10-08T03:49:12;2.08;;;1.40;;
74196;SDS011;62555;52.678;4.900;2023-10-08T03:51:50;1.90;;;1.50;;
74196;SDS011;62555;52.678;4.900;2023-10-08T03:54:20;2.15;;;1.33;;
74196;SDS011;62555;52.678;4.900;2023-10-08T03:56:55;2.25;;;1.40;;
74196;SDS011;62555;52.678;4.900;2023-10-08T03:59:20;2.38;;;1.30;;
74196;SDS011;62555;52.678;4.900;2023-10-08T04:01:56;1.42;;;1.10;;
74196;SDS011;62555;52.678;4.900;2023-10-08T04:04:24;1.95;;;1.35;;
74196;SDS011;62555;52.678;4.900;2023-10-08T04:06:56;1.73;;;1.10;;
74196;SDS011;62555;52.678;4.900;2023-10-08T04:09:41;1.73;;;1.35;;
74196;SDS011;62555;52.678;4.900;2023-10-08T04:12:07;1.92;;;1.10;;
74196;SDS011;62555;52.678;4.900;2023-10-08T04:14:36;1.60;;;1.02;;
74196;SDS011;62555;52.678;4.900;2023-10-08T04:17:01;2.17;;;1.30;;
74196;SDS011;62555;52.678;4.900;2023-10-08T04:19:26;1.43;;;1.10;;
74196;SDS011;62555;52.678;4.900;2023-10-08T04:21:54;1.92;;;1.20;;
74196;SDS011;62555;52.678;4.900;2023-10-08T04:24:21;1.27;;;1.08;;
74196;SDS011;62555;52.678;4.900;2023-10-08T04:26:52;2.67;;;1.15;;
74196;SDS011;62555;52.678;4.900;2023-10-08T04:29:21;1.63;;;1.20;;
74196;SDS011;62555;52.678;4.900;2023-10-08T04:31:47;1.23;;;1.08;;
74196;SDS011;62555;52.678;4.900;2023-10-08T04:34:19;1.60;;;0.98;;
74196;SDS011;62555;52.678;4.900;2023-10-08T04:36:47;1.73;;;1.20;;
74196;SDS011;62555;52.678;4.900;2023-10-08T04:39:19;1.38;;;1.10;;
74196;SDS011;62555;52.678;4.900;2023-10-08T04:41:47;1.48;;;1.10;;
74196;SDS011;62555;52.678;4.900;2023-10-08T04:44:15;1.48;;;0.95;;
74196;SDS011;62555;52.678;4.900;2023-10-08T04:46:41;1.85;;;1.00;;
74196;SDS011;62555;52.678;4.900;2023-10-08T04:49:15;1.70;;;0.70;;
74196;SDS011;62555;52.678;4.900;2023-10-08T04:51:56;1.85;;;1.00;;
74196;SDS011;62555;52.678;4.900;2023-10-08T04:54:24;1.38;;;0.90;;
74196;SDS011;62555;52.678;4.900;2023-10-08T04:56:49;1.52;;;1.00;;
74196;SDS011;62555;52.678;4.900;2023-10-08T04:59:14;1.50;;;1.00;;
74196;SDS011;62555;52.678;4.900;2023-10-08T05:01:45;1.48;;;0.93;;
74196;SDS011;62555;52.678;4.900;2023-10-08T05:04:14;0.95;;;0.82;;
74196;SDS011;62555;52.678;4.900;2023-10-08T05:06:48;2.05;;;1.17;;
74196;SDS011;62555;52.678;4.900;2023-10-08T05:09:26;2.17;;;1.30;;
74196;SDS011;62555;52.678;4.900;2023-10-08T05:12:04;1.27;;;0.80;;
74196;SDS011;62555;52.678;4.900;2023-10-08T05:14:59;1.55;;;1.00;;
74196;SDS011;62555;52.678;4.900;2023-10-08T05:17:40;1.17;;;0.93;;
74196;SDS011;62555;52.678;4.900;2023-10-08T05:20:17;2.17;;;1.00;;
74196;SDS011;62555;52.678;4.900;2023-10-08T05:22:55;1.48;;;1.00;;
74196;SDS011;62555;52.678;4.900;2023-10-08T05:25:46;1.58;;;0.90;;
74196;SDS011;62555;52.678;4.900;2023-10-08T05:30:55;1.00;;;0.75;;
74196;SDS011;62555;52.678;4.900;2023-10-08T05:33:46;1.30;;;0.70;;
74196;SDS011;62555;52.678;4.900;2023-10-08T05:36:34;1.10;;;0.90;;
74196;SDS011;62555;52.678;4.900;2023-10-08T05:39:14;1.25;;;0.80;;
74196;SDS011;62555;52.678;4.900;2023-10-08T05:41:49;1.65;;;0.73;;
74196;SDS011;62555;52.678;4.900;2023-10-08T05:44:17;0.75;;;0.73;;
74196;SDS011;62555;52.678;4.900;2023-10-08T05:46:42;1.42;;;0.80;;
74196;SDS011;62555;52.678;4.900;2023-10-08T05:49:19;1.27;;;0.82;;
74196;SDS011;62555;52.678;4.900;2023-10-08T05:51:57;0.88;;;0.70;;
74196;SDS011;62555;52.678;4.900;2023-10-08T05:54:28;0.80;;;0.80;;
74196;SDS011;62555;52.678;4.900;2023-10-08T05:56:59;0.93;;;0.55;;
74196;SDS011;62555;52.678;4.900;2023-10-08T05:59:35;1.92;;;1.15;;
74196;SDS011;62555;52.678;4.900;2023-10-08T06:02:19;1.23;;;0.75;;
74196;SDS011;62555;52.678;4.900;2023-10-08T06:05:05;0.85;;;0.57;;
74196;SDS011;62555;52.678;4.900;2023-10-08T06:07:43;1.08;;;0.75;;
74196;SDS011;62555;52.678;4.900;2023-10-08T06:10:18;1.67;;;1.10;;
74196;SDS011;62555;52.678;4.900;2023-10-08T06:12:55;0.80;;;0.68;;
74196;SDS011;62555;52.678;4.900;2023-10-08T06:15:38;1.00;;;0.60;;
74196;SDS011;62555;52.678;4.900;2023-10-08T06:18:13;1.00;;;0.70;;
74196;SDS011;62555;52.678;4.900;2023-10-08T06:20:39;1.55;;;0.77;;
74196;SDS011;62555;52.678;4.900;2023-10-08T06:23:08;0.73;;;0.55;;
74196;SDS011;62555;52.678;4.900;2023-10-08T06:25:33;1.63;;;0.75;;
74196;SDS011;62555;52.678;4.900;2023-10-08T06:28:09;1.15;;;0.70;;
74196;SDS011;62555;52.678;4.900;2023-10-08T06:30:34;1.00;;;0.60;;
74196;SDS011;62555;52.678;4.900;2023-10-08T06:32:59;1.23;;;0.70;;
74196;SDS011;62555;52.678;4.900;2023-10-08T06:35:26;1.02;;;0.60;;
74196;SDS011;62555;52.678;4.900;2023-10-08T06:37:52;1.67;;;0.80;;
74196;SDS011;62555;52.678;4.900;2023-10-08T06:40:20;1.23;;;0.73;;
74196;SDS011;62555;52.678;4.900;2023-10-08T06:43:04;1.20;;;0.70;;
74196;SDS011;62555;52.678;4.900;2023-10-08T06:45:39;0.85;;;0.60;;
74196;SDS011;62555;52.678;4.900;2023-10-08T06:48:06;1.80;;;0.70;;
74196;SDS011;62555;52.678;4.900;2023-10-08T06:50:31;0.85;;;0.40;;
74196;SDS011;62555;52.678;4.900;2023-10-08T06:52:59;0.73;;;0.60;;
74196;SDS011;62555;52.678;4.900;2023-10-08T06:55:24;1.27;;;0.67;;
74196;SDS011;62555;52.678;4.900;2023-10-08T06:57:52;0.80;;;0.43;;
74196;SDS011;62555;52.678;4.900;2023-10-08T07:00:17;0.65;;;0.50;;
74196;SDS011;62555;52.678;4.900;2023-10-08T07:03:02;0.60;;;0.50;;
74196;SDS011;62555;52.678;4.900;2023-10-08T07:05:27;0.75;;;0.40;;
74196;SDS011;62555;52.678;4.900;2023-10-08T07:07:54;1.00;;;0.50;;
74196;SDS011;62555;52.678;4.900;2023-10-08T07:10:19;1.25;;;0.70;;
74196;SDS011;62555;52.678;4.900;2023-10-08T07:12:45;0.52;;;0.50;;
74196;SDS011;62555;52.678;4.900;2023-10-08T07:15:11;1.50;;;0.88;;
74196;SDS011;62555;52.678;4.900;2023-10-08T07:17:37;0.40;;;0.40;;
74196;SDS011;62555;52.678;4.900;2023-10-08T07:20:05;1.05;;;0.63;;
74196;SDS011;62555;52.678;4.900;2023-10-08T07:22:38;0.95;;;0.55;;
74196;SDS011;62555;52.678;4.900;2023-10-08T07:25:04;0.60;;;0.40;;
74196;SDS011;62555;52.678;4.900;2023-10-08T07:27:33;0.82;;;0.82;;
74196;SDS011;62555;52.678;4.900;2023-10-08T07:30:02;0.52;;;0.40;;
74196;SDS011;62555;52.678;4.900;2023-10-08T07:32:35;0.60;;;0.60;;
74196;SDS011;62555;52.678;4.900;2023-10-08T07:35:00;0.50;;;0.43;;
74196;SDS011;62555;52.678;4.900;2023-10-08T07:37:48;1.05;;;0.63;;
74196;SDS011;62555;52.678;4.900;2023-10-08T07:40:13;0.50;;;0.50;;
74196;SDS011;62555;52.678;4.900;2023-10-08T07:42:39;0.68;;;0.43;;
74196;SDS011;62555;52.678;4.900;2023-10-08T07:45:05;0.60;;;0.40;;
74196;SDS011;62555;52.678;4.900;2023-10-08T07:47:30;1.10;;;0.57;;
74196;SDS011;62555;52.678;4.900;2023-10-08T07:49:55;0.80;;;0.50;;
74196;SDS011;62555;52.678;4.900;2023-10-08T07:52:20;0.70;;;0.50;;
74196;SDS011;62555;52.678;4.900;2023-10-08T07:54:46;1.20;;;1.07;;
74196;SDS011;62555;52.678;4.900;2023-10-08T07:57:12;0.80;;;0.55;;
74196;SDS011;62555;52.678;4.900;2023-10-08T07:59:42;1.10;;;0.55;;
74196;SDS011;62555;52.678;4.900;2023-10-08T08:02:20;0.70;;;0.43;;
74196;SDS011;62555;52.678;4.900;2023-10-08T08:04:50;0.82;;;0.60;;
74196;SDS011;62555;52.678;4.900;2023-10-08T08:07:16;0.52;;;0.38;;
74196;SDS011;62555;52.678;4.900;2023-10-08T08:09:42;0.57;;;0.40;;
74196;SDS011;62555;52.678;4.900;2023-10-08T08:12:09;1.30;;;0.50;;
74196;SDS011;62555;52.678;4.900;2023-10-08T08:14:36;0.73;;;0.40;;
74196;SDS011;62555;52.678;4.900;2023-10-08T08:17:03;1.77;;;0.60;;
74196;SDS011;62555;52.678;4.900;2023-10-08T08:19:38;0.98;;;0.60;;
74196;SDS011;62555;52.678;4.900;2023-10-08T08:22:03;1.00;;;0.57;;
74196;SDS011;62555;52.678;4.900;2023-10-08T08:24:29;1.02;;;0.50;;
74196;SDS011;62555;52.678;4.900;2023-10-08T08:26:55;0.40;;;0.40;;
74196;SDS011;62555;52.678;4.900;2023-10-08T08:29:29;1.27;;;0.50;;
74196;SDS011;62555;52.678;4.900;2023-10-08T08:31:55;1.13;;;0.60;;
74196;SDS011;62555;52.678;4.900;2023-10-08T08:34:21;1.65;;;0.60;;
74196;SDS011;62555;52.678;4.900;2023-10-08T08:36:46;0.50;;;0.40;;
74196;SDS011;62555;52.678;4.900;2023-10-08T08:39:14;0.90;;;0.68;;
74196;SDS011;62555;52.678;4.900;2023-10-08T08:44:18;1.00;;;0.40;;
74196;SDS011;62555;52.678;4.900;2023-10-08T08:46:45;1.17;;;0.55;;
74196;SDS011;62555;52.678;4.900;2023-10-08T08:49:10;1.33;;;0.45;;
74196;SDS011;62555;52.678;4.900;2023-10-08T08:51:38;0.70;;;0.40;;
74196;SDS011;62555;52.678;4.900;2023-10-08T08:54:03;1.17;;;0.50;;
74196;SDS011;62555;52.678;4.900;2023-10-08T08:56:32;0.75;;;0.45;;
74196;SDS011;62555;52.678;4.900;2023-10-08T08:58:57;0.50;;;0.40;;
74196;SDS011;62555;52.678;4.900;2023-10-08T09:01:23;1.33;;;0.50;;
74196;SDS011;62555;52.678;4.900;2023-10-08T09:03:49;1.37;;;0.50;;
74196;SDS011;62555;52.678;4.900;2023-10-08T09:06:15;1.65;;;0.75;;
74196;SDS011;62555;52.678;4.900;2023-10-08T09:08:40;1.03;;;0.50;;
74196;SDS011;62555;52.678;4.900;2023-10-08T09:11:13;0.60;;;0.32;;
74196;SDS011;62555;52.678;4.900;2023-10-08T09:13:38;1.33;;;0.60;;
74196;SDS011;62555;52.678;4.900;2023-10-08T09:16:11;0.90;;;0.43;;
74196;SDS011;62555;52.678;4.900;2023-10-08T09:18:36;0.90;;;0.52;;
74196;SDS011;62555;52.678;4.900;2023-10-08T09:21:11;1.13;;;0.40;;
74196;SDS011;62555;52.678;4.900;2023-10-08T09:23:43;8.05;;;5.28;;
74196;SDS011;62555;52.678;4.900;2023-10-08T09:26:09;54.85;;;45.47;;
74196;SDS011;62555;52.678;4.900;2023-10-08T09:28:34;25.13;;;17.67;;
74196;SDS011;62555;52.678;4.900;2023-10-08T09:30:59;40.17;;;27.35;;
74196;SDS011;62555;52.678;4.900;2023-10-08T09:33:24;35.80;;;24.43;;
74196;SDS011;62555;52.678;4.900;2023-10-08T09:35:50;66.90;;;48.28;;
74196;SDS011;62555;52.678;4.900;2023-10-08T09:40:47;34.00;;;23.02;;
74196;SDS011;62555;52.678;4.900;2023-10-08T09:43:13;58.78;;;40.33;;
74196;SDS011;62555;52.678;4.900;2023-10-08T09:45:42;58.45;;;40.10;;
74196;SDS011;62555;52.678;4.900;2023-10-08T09:48:10;82.10;;;59.92;;
74196;SDS011;62555;52.678;4.900;2023-10-08T09:50:37;47.83;;;30.85;;
74196;SDS011;62555;52.678;4.900;2023-10-08T09:55:33;59.70;;;41.92;;
74196;SDS011;62555;52.678;4.900;2023-10-08T09:57:58;50.77;;;37.37;;
74196;SDS011;62555;52.678;4.900;2023-10-08T10:00:23;43.00;;;29.98;;
74196;SDS011;62555;52.678;4.900;2023-10-08T10:05:21;17.50;;;10.10;;
74196;SDS011;62555;52.678;4.900;2023-10-08T10:07:49;38.72;;;25.98;;
74196;SDS011;62555;52.678;4.900;2023-10-08T10:12:52;102.18;;;68.25;;
74196;SDS011;62555;52.678;4.900;2023-10-08T10:15:20;82.20;;;45.50;;
74196;SDS011;62555;52.678;4.900;2023-10-08T10:17:46;58.45;;;28.90;;
74196;SDS011;62555;52.678;4.900;2023-10-08T10:20:12;17.42;;;6.93;;
74196;SDS011;62555;52.678;4.900;2023-10-08T10:22:38;8.82;;;2.92;;
74196;SDS011;62555;52.678;4.900;2023-10-08T10:25:04;3.65;;;1.17;;
74196;SDS011;62555;52.678;4.900;2023-10-08T10:27:41;5.55;;;3.00;;
74196;SDS011;62555;52.678;4.900;2023-10-08T10:30:07;57.35;;;40.08;;
74196;SDS011;62555;52.678;4.900;2023-10-08T10:32:37;162.07;;;110.25;;
74196;SDS011;62555;52.678;4.900;2023-10-08T10:35:03;277.65;;;203.27;;
74196;SDS011;62555;52.678;4.900;2023-10-08T10:37:30;340.58;;;248.20;;
74196;SDS011;62555;52.678;4.900;2023-10-08T10:40:06;560.92;;;491.90;;
74196;SDS011;62555;52.678;4.900;2023-10-08T10:42:35;341.65;;;235.32;;
74196;SDS011;62555;52.678;4.900;2023-10-08T10:45:03;371.90;;;247.20;;
74196;SDS011;62555;52.678;4.900;2023-10-08T10:47:52;258.60;;;160.20;;
74196;SDS011;62555;52.678;4.900;2023-10-08T10:50:25;147.00;;;80.70;;
74196;SDS011;62555;52.678;4.900;2023-10-08T10:52:56;150.93;;;86.75;;
74196;SDS011;62555;52.678;4.900;2023-10-08T10:55:22;67.60;;;28.95;;
74196;SDS011;62555;52.678;4.900;2023-10-08T10:57:56;226.98;;;155.35;;
74196;SDS011;62555;52.678;4.900;2023-10-08T11:00:37;39.90;;;17.42;;
74196;SDS011;62555;52.678;4.900;2023-10-08T11:03:03;33.22;;;15.18;;
74196;SDS011;62555;52.678;4.900;2023-10-08T11:05:29;13.52;;;5.03;;
74196;SDS011;62555;52.678;4.900;2023-10-08T11:07:56;7.10;;;2.05;;
74196;SDS011;62555;52.678;4.900;2023-10-08T11:10:36;5.55;;;1.20;;
74196;SDS011;62555;52.678;4.900;2023-10-08T11:13:13;2.95;;;1.17;;
74196;SDS011;62555;52.678;4.900;2023-10-08T11:15:42;1.85;;;0.70;;
74196;SDS011;62555;52.678;4.900;2023-10-08T11:18:10;2.13;;;0.70;;
74196;SDS011;62555;52.678;4.900;2023-10-08T11:20:36;3.78;;;0.70;;
74196;SDS011;62555;52.678;4.900;2023-10-08T11:23:05;1.65;;;0.75;;
74196;SDS011;62555;52.678;4.900;2023-10-08T11:25:51;2.05;;;0.60;;
74196;SDS011;62555;52.678;4.900;2023-10-08T11:28:17;2.88;;;0.88;;
74196;SDS011;62555;52.678;4.900;2023-10-08T11:30:43;2.10;;;0.70;;
74196;SDS011;62555;52.678;4.900;2023-10-08T11:33:11;2.13;;;0.90;;
74196;SDS011;62555;52.678;4.900;2023-10-08T11:35:54;1.98;;;0.63;;
74196;SDS011;62555;52.678;4.900;2023-10-08T11:38:19;1.33;;;0.73;;
74196;SDS011;62555;52.678;4.900;2023-10-08T11:40:47;1.38;;;0.55;;
74196;SDS011;62555;52.678;4.900;2023-10-08T11:43:14;2.20;;;0.65;;
74196;SDS011;62555;52.678;4.900;2023-10-08T11:45:41;1.40;;;0.50;;
74196;SDS011;62555;52.678;4.900;2023-10-08T11:48:13;1.02;;;0.43;;
74196;SDS011;62555;52.678;4.900;2023-10-08T11:50:38;1.43;;;0.70;;
74196;SDS011;62555;52.678;4.900;2023-10-08T11:53:03;2.10;;;0.50;;
74196;SDS011;62555;52.678;4.900;2023-10-08T11:57:59;1.38;;;0.50;;
74196;SDS011;62555;52.678;4.900;2023-10-08T12:00:25;1.90;;;0.70;;
74196;SDS011;62555;52.678;4.900;2023-10-08T12:02:51;1.73;;;0.73;;
74196;SDS011;62555;52.678;4.900;2023-10-08T12:05:19;1.00;;;0.73;;
74196;SDS011;62555;52.678;4.900;2023-10-08T12:07:45;1.08;;;0.55;;
74196;SDS011;62555;52.678;4.900;2023-10-08T12:10:11;1.75;;;0.60;;
74196;SDS011;62555;52.678;4.900;2023-10-08T12:12:36;0.95;;;0.52;;
74196;SDS011;62555;52.678;4.900;2023-10-08T12:15:01;2.08;;;1.00;;
74196;SDS011;62555;52.678;4.900;2023-10-08T12:17:28;2.30;;;0.85;;
74196;SDS011;62555;52.678;4.900;2023-10-08T12:20:04;1.35;;;0.60;;
74196;SDS011;62555;52.678;4.900;2023-10-08T12:22:37;2.00;;;0.82;;
74196;SDS011;62555;52.678;4.900;2023-10-08T12:25:02;2.95;;;0.80;;
74196;SDS011;62555;52.678;4.900;2023-10-08T12:27:29;1.88;;;0.75;;
74196;SDS011;62555;52.678;4.900;2023-10-08T12:29:54;1.95;;;0.80;;
74196;SDS011;62555;52.678;4.900;2023-10-08T12:32:23;2.28;;;0.77;;
74196;SDS011;62555;52.678;4.900;2023-10-08T12:34:51;2.05;;;0.70;;
74196;SDS011;62555;52.678;4.900;2023-10-08T12:37:18;1.83;;;1.02;;
74196;SDS011;62555;52.678;4.900;2023-10-08T12:39:43;1.08;;;0.50;;
74196;SDS011;62555;52.678;4.900;2023-10-08T12:42:25;3.15;;;1.23;;
74196;SDS011;62555;52.678;4.900;2023-10-08T12:44:50;3.10;;;0.85;;
74196;SDS011;62555;52.678;4.900;2023-10-08T12:47:15;1.55;;;0.50;;
74196;SDS011;62555;52.678;4.900;2023-10-08T12:49:41;2.40;;;0.87;;
74196;SDS011;62555;52.678;4.900;2023-10-08T12:52:06;1.37;;;0.80;;
74196;SDS011;62555;52.678;4.900;2023-10-08T12:54:31;1.60;;;0.70;;
74196;SDS011;62555;52.678;4.900;2023-10-08T12:57:04;1.40;;;0.80;;
74196;SDS011;62555;52.678;4.900;2023-10-08T12:59:33;1.38;;;0.65;;
74196;SDS011;62555;52.678;4.900;2023-10-08T13:01:59;0.98;;;0.47;;
74196;SDS011;62555;52.678;4.900;2023-10-08T13:04:26;1.73;;;0.70;;
74196;SDS011;62555;52.678;4.900;2023-10-08T13:07:00;1.38;;;0.50;;
74196;SDS011;62555;52.678;4.900;2023-10-08T13:09:28;1.92;;;0.60;;
74196;SDS011;62555;52.678;4.900;2023-10-08T13:11:56;0.80;;;0.60;;
74196;SDS011;62555;52.678;4.900;2023-10-08T13:14:21;1.07;;;0.70;;
74196;SDS011;62555;52.678;4.900;2023-10-08T13:16:48;2.00;;;0.65;;
74196;SDS011;62555;52.678;4.900;2023-10-08T13:19:14;1.58;;;0.60;;
74196;SDS011;62555;52.678;4.900;2023-10-08T13:21:40;2.83;;;0.77;;
74196;SDS011;62555;52.678;4.900;2023-10-08T13:24:06;1.00;;;0.50;;
74196;SDS011;62555;52.678;4.900;2023-10-08T13:26:34;1.40;;;0.68;;
74196;SDS011;62555;52.678;4.900;2023-10-08T13:28:59;1.02;;;0.52;;
74196;SDS011;62555;52.678;4.900;2023-10-08T13:31:25;0.50;;;0.47;;
74196;SDS011;62555;52.678;4.900;2023-10-08T13:33:50;1.73;;;0.65;;
74196;SDS011;62555;52.678;4.900;2023-10-08T13:36:17;1.83;;;0.60;;
74196;SDS011;62555;52.678;4.900;2023-10-08T13:38:42;0.73;;;0.50;;
74196;SDS011;62555;52.678;4.900;2023-10-08T13:41:08;0.60;;;0.40;;
74196;SDS011;62555;52.678;4.900;2023-10-08T13:43:49;1.08;;;0.50;;
74196;SDS011;62555;52.678;4.900;2023-10-08T13:46:17;1.05;;;0.45;;
74196;SDS011;62555;52.678;4.900;2023-10-08T13:48:44;1.23;;;0.60;;
74196;SDS011;62555;52.678;4.900;2023-10-08T13:51:13;0.95;;;0.60;;
74196;SDS011;62555;52.678;4.900;2023-10-08T13:53:40;0.63;;;0.47;;
74196;SDS011;62555;52.678;4.900;2023-10-08T13:56:05;1.02;;;0.50;;
74196;SDS011;62555;52.678;4.900;2023-10-08T13:58:31;1.02;;;0.50;;
74196;SDS011;62555;52.678;4.900;2023-10-08T14:00:56;1.20;;;0.57;;
74196;SDS011;62555;52.678;4.900;2023-10-08T14:03:24;0.90;;;0.50;;
74196;SDS011;62555;52.678;4.900;2023-10-08T14:05:50;1.15;;;0.68;;
74196;SDS011;62555;52.678;4.900;2023-10-08T14:08:19;1.10;;;0.57;;
74196;SDS011;62555;52.678;4.900;2023-10-08T14:10:44;1.05;;;0.60;;
74196;SDS011;62555;52.678;4.900;2023-10-08T14:13:10;0.73;;;0.40;;
74196;SDS011;62555;52.678;4.900;2023-10-08T14:15:35;1.67;;;0.90;;
74196;SDS011;62555;52.678;4.900;2023-10-08T14:18:07;0.90;;;0.52;;
74196;SDS011;62555;52.678;4.900;2023-10-08T14:20:33;0.88;;;0.45;;
74196;SDS011;62555;52.678;4.900;2023-10-08T14:22:58;1.65;;;0.65;;
74196;SDS011;62555;52.678;4.900;2023-10-08T14:25:27;1.38;;;0.50;;
74196;SDS011;62555;52.678;4.900;2023-10-08T14:27:53;1.17;;;0.43;;
74196;SDS011;62555;52.678;4.900;2023-10-08T14:30:19;1.10;;;0.82;;
74196;SDS011;62555;52.678;4.900;2023-10-08T14:32:49;1.38;;;0.57;;
74196;SDS011;62555;52.678;4.900;2023-10-08T14:35:14;0.70;;;0.50;;
74196;SDS011;62555;52.678;4.900;2023-10-08T14:37:58;1.17;;;0.68;;
74196;SDS011;62555;52.678;4.900;2023-10-08T14:40:42;1.05;;;0.50;;
74196;SDS011;62555;52.678;4.900;2023-10-08T14:43:26;0.73;;;0.70;;
74196;SDS011;62555;52.678;4.900;2023-10-08T14:45:56;0.82;;;0.40;;
74196;SDS011;62555;52.678;4.900;2023-10-08T14:48:21;1.43;;;0.57;;
74196;SDS011;62555;52.678;4.900;2023-10-08T14:50:47;0.47;;;0.40;;
74196;SDS011;62555;52.678;4.900;2023-10-08T14:53:14;1.10;;;0.50;;
74196;SDS011;62555;52.678;4.900;2023-10-08T14:55:39;0.57;;;0.30;;
74196;SDS011;62555;52.678;4.900;2023-10-08T14:58:04;0.93;;;0.43;;
74196;SDS011;62555;52.678;4.900;2023-10-08T15:00:33;1.05;;;0.55;;
74196;SDS011;62555;52.678;4.900;2023-10-08T15:03:00;0.85;;;0.50;;
74196;SDS011;62555;52.678;4.900;2023-10-08T15:05:27;1.33;;;0.52;;
74196;SDS011;62555;52.678;4.900;2023-10-08T15:07:53;1.38;;;0.50;;
74196;SDS011;62555;52.678;4.900;2023-10-08T15:10:18;1.23;;;0.63;;
74196;SDS011;62555;52.678;4.900;2023-10-08T15:12:44;1.13;;;0.60;;
74196;SDS011;62555;52.678;4.900;2023-10-08T15:15:09;1.53;;;0.53;;
74196;SDS011;62555;52.678;4.900;2023-10-08T15:17:44;1.58;;;0.60;;